Time;durP1;ratioP1;P1;durP2;ratioP2;P2;SDS_P1;SDS_P2;PMS_P1;PMS_P2;Temp;Humidity;BMP_temperature;BMP_pressure;BME280_temperature;BME280_humidity;BME280_pressure;Samples;Min_cycle;Max_cycle;Signal;HPM_P1;HPM_P2
2021/04/08 00:00:33;;;;;;;11.00;2.92;;;3.50;89.40;;;4.30;69.36;101147.22;4997462;28;20042;-83
2021/04/08 00:03:00;;;;;;;14.55;3.25;;;3.50;89.60;;;4.31;69.51;101140.84;4997197;28;20054;-84
2021/04/08 00:05:27;;;;;;;10.93;3.33;;;3.50;89.80;;;4.31;69.90;101131.91;4997575;28;20426;-84
2021/04/08 00:07:54;;;;;;;14.77;3.75;;;3.50;89.90;;;4.34;69.84;101144.25;4997321;28;20045;-84
2021/04/08 00:10:20;;;;;;;14.10;3.50;;;3.50;90.00;;;4.32;69.83;101141.69;4997337;28;20117;-84
2021/04/08 00:12:47;;;;;;;9.52;3.42;;;3.70;90.20;;;4.23;70.45;101140.63;4996696;28;20511;-84
2021/04/08 00:15:16;;;;;;;11.88;3.88;;;3.60;89.90;;;4.26;70.10;101144.91;4996741;28;20053;-84
2021/04/08 00:17:44;;;;;;;10.23;3.50;;;3.60;89.80;;;4.29;70.06;101141.97;4997205;28;20133;-84
2021/04/08 00:20:16;;;;;;;11.25;3.70;;;3.60;89.80;;;4.30;69.93;101151.75;4997081;28;20045;-84
2021/04/08 00:22:42;;;;;;;9.02;3.58;;;3.60;89.80;;;4.30;70.19;101143.66;4997211;28;20050;-84
2021/04/08 00:25:11;;;;;;;14.30;4.35;;;3.70;89.70;;;4.31;70.12;101148.06;4997128;28;20049;-84
2021/04/08 00:27:38;;;;;;;8.23;3.40;;;3.60;89.50;;;4.33;69.42;101145.25;4996971;28;20057;-84
2021/04/08 00:30:07;;;;;;;9.52;3.63;;;3.60;89.30;;;4.29;69.88;101152.75;4996978;28;20118;-84
2021/04/08 00:32:34;;;;;;;12.60;4.28;;;3.60;89.50;;;4.25;69.80;101154.00;4995470;28;20058;-84
2021/04/08 00:35:02;;;;;;;10.18;3.60;;;3.50;89.30;;;4.21;69.95;101158.78;4996287;28;20510;-84
2021/04/08 00:37:28;;;;;;;12.88;4.72;;;3.40;89.10;;;4.21;69.60;101160.63;4997076;28;20062;-83
2021/04/08 00:39:55;;;;;;;13.27;4.43;;;3.40;89.60;;;4.21;69.75;101153.38;4996867;28;20046;-84
2021/04/08 00:42:24;;;;;;;13.60;4.40;;;3.40;89.60;;;4.20;69.30;101159.75;4995938;28;20050;-84
2021/04/08 00:44:50;;;;;;;12.45;3.65;;;3.40;89.50;;;4.18;69.52;101153.63;4996392;28;20107;-83
2021/04/08 00:47:17;;;;;;;11.38;4.78;;;3.40;89.60;;;4.16;69.69;101166.38;4995821;28;20124;-84
2021/04/08 00:49:44;;;;;;;12.45;4.43;;;3.30;89.40;;;4.15;69.86;101161.09;4996833;28;20048;-84
2021/04/08 00:52:12;;;;;;;14.88;5.15;;;3.30;89.60;;;4.13;69.79;101169.31;4995248;28;20053;-84
2021/04/08 00:54:39;;;;;;;12.98;4.82;;;3.30;89.70;;;4.09;69.63;101173.25;4994976;28;20105;-84
2021/04/08 00:57:07;;;;;;;16.20;4.78;;;3.30;89.70;;;4.07;69.37;101172.50;4996192;28;20069;-84
2021/04/08 00:59:34;;;;;;;11.70;4.63;;;3.20;89.90;;;4.06;69.23;101168.97;4996862;28;20104;-84
2021/04/08 01:02:01;;;;;;;15.23;5.25;;;3.20;89.80;;;4.06;69.61;101168.97;4996393;28;20042;-84
2021/04/08 01:04:28;;;;;;;15.45;5.10;;;3.10;90.00;;;4.05;69.71;101177.16;4996100;28;20051;-83
2021/04/08 01:06:55;;;;;;;10.32;4.85;;;3.20;90.00;;;3.99;69.50;101178.53;4996451;28;20046;-84
2021/04/08 01:09:23;;;;;;;16.05;4.97;;;3.20;89.80;;;3.97;70.14;101185.03;4995046;28;20058;-83
2021/04/08 01:11:50;;;;;;;13.10;4.47;;;3.20;89.80;;;3.94;69.64;101183.47;4995545;28;20074;-83
2021/04/08 01:14:17;;;;;;;9.55;4.75;;;3.10;89.90;;;3.93;69.51;101187.13;4995785;28;20049;-83
2021/04/08 01:16:51;;;;;;;12.23;4.45;;;3.10;90.00;;;3.94;69.56;101185.28;4996020;28;20073;-84
2021/04/08 01:20:08;;;;;;;15.77;6.15;;;3.10;90.00;;;3.96;69.82;101191.38;4996630;28;20530;-83
2021/04/08 01:23:04;;;;;;;15.27;4.60;;;3.00;90.00;;;3.89;69.92;101186.50;4995482;28;20105;-83
2021/04/08 01:26:39;;;;;;;17.60;4.72;;;3.00;90.40;;;3.88;69.73;101189.31;4995724;28;20104;-84
2021/04/08 01:29:15;;;;;;;12.30;4.72;;;3.00;90.10;;;3.87;69.92;101198.41;4991174;28;20058;-83
2021/04/08 01:31:44;;;;;;;15.52;4.50;;;3.10;90.40;;;3.84;70.14;101194.09;4995991;28;20069;-83
2021/04/08 01:34:15;;;;;;;13.15;4.25;;;2.90;90.20;;;3.85;70.21;101192.28;4995554;28;20038;-83
2021/04/08 01:36:44;;;;;;;14.63;4.57;;;2.90;90.30;;;3.85;70.15;101200.34;4996104;28;20042;-84
2021/04/08 01:39:15;;;;;;;12.82;4.68;;;3.00;90.30;;;3.86;69.56;101197.50;4995306;28;20054;-84
2021/04/08 01:41:45;;;;;;;11.30;4.30;;;2.90;90.50;;;3.81;69.60;101188.97;4994464;28;20051;-83
2021/04/08 01:44:18;;;;;;;14.88;4.20;;;2.90;90.70;;;3.79;70.05;101193.63;4995069;28;20046;-83
2021/04/08 01:46:52;;;;;;;12.85;4.53;;;2.90;90.40;;;3.70;70.50;101197.06;4993816;28;20454;-83
2021/04/08 01:49:20;;;;;;;12.48;4.28;;;2.90;90.70;;;3.77;70.38;101202.78;4995126;28;20057;-83
2021/04/08 01:51:48;;;;;;;12.98;4.30;;;2.90;90.50;;;3.74;69.81;101198.53;4994842;28;20042;-83
2021/04/08 01:54:16;;;;;;;11.75;4.20;;;2.90;90.40;;;3.75;70.09;101200.25;4994479;28;20049;-83
2021/04/08 01:56:44;;;;;;;13.60;4.53;;;2.90;90.30;;;3.75;69.71;101199.38;4995135;28;20050;-83
2021/04/08 01:59:14;;;;;;;13.45;5.32;;;2.80;90.50;;;3.73;70.23;101207.56;4994691;28;20038;-83
2021/04/08 02:01:44;;;;;;;12.50;4.55;;;2.80;90.60;;;3.70;70.30;101202.44;4994338;28;20166;-84
2021/04/08 02:04:12;;;;;;;9.07;3.67;;;2.80;90.50;;;3.67;70.51;101191.91;4993902;28;20046;-83
2021/04/08 02:06:44;;;;;;;10.73;3.85;;;2.80;90.60;;;3.69;70.04;101200.72;4994441;28;20493;-83
2021/04/08 02:09:11;;;;;;;;;;;2.80;90.60;;;3.70;70.44;101197.06;4994687;28;20050;-83
2021/04/08 02:11:40;;;;;;;16.30;4.60;;;2.80;90.60;;;3.70;70.21;101208.66;4993138;28;20161;-83
2021/04/08 02:14:09;;;;;;;15.43;4.28;;;2.80;90.80;;;3.68;70.03;101204.41;4993658;28;20047;-83
2021/04/08 02:16:37;;;;;;;13.02;4.72;;;2.80;90.60;;;3.67;69.81;101205.38;4994326;28;20117;-84
2021/04/08 02:19:08;;;;;;;14.88;5.03;;;2.80;90.60;;;3.61;69.61;101203.19;4994249;28;20058;-83
2021/04/08 02:21:36;;;;;;;14.90;5.28;;;2.80;90.10;;;3.58;69.87;101208.78;4994294;28;20053;-84
2021/04/08 02:24:03;;;;;;;12.38;5.30;;;2.70;90.30;;;3.58;69.85;101203.41;4994108;28;20553;-83
2021/04/08 02:26:31;;;;;;;14.45;5.40;;;2.70;90.20;;;3.56;70.34;101210.75;4994536;28;20066;-83
2021/04/08 02:29:00;;;;;;;16.83;5.38;;;2.70;90.20;;;3.55;69.76;101209.06;4994217;28;20368;-83
2021/04/08 02:31:29;;;;;;;16.45;5.88;;;2.70;90.20;;;3.52;69.68;101205.63;4994412;28;20065;-83
2021/04/08 02:33:56;;;;;;;17.70;7.03;;;2.60;90.30;;;3.49;70.29;101205.84;4993987;28;20073;-83
2021/04/08 02:36:23;;;;;;;19.92;6.68;;;2.60;90.50;;;3.51;70.15;101208.44;4992726;28;20050;-83
2021/04/08 02:38:51;;;;;;;15.45;5.68;;;2.60;90.50;;;3.52;69.67;101205.63;4994225;28;20531;-83
2021/04/08 02:41:18;;;;;;;17.25;6.82;;;2.70;90.60;;;3.50;69.95;101207.59;4993856;28;20038;-83
2021/04/08 02:43:45;;;;;;;24.33;7.68;;;2.60;90.50;;;3.49;70.12;101208.56;4992513;28;20070;-83
2021/04/08 02:46:12;;;;;;;15.45;6.00;;;2.70;90.70;;;3.49;69.98;101210.41;4993982;28;20174;-83
2021/04/08 02:48:38;;;;;;;15.82;7.07;;;2.70;90.60;;;3.49;70.23;101215.78;4993936;28;20054;-83
2021/04/08 02:51:10;;;;;;;23.98;7.32;;;2.60;90.80;;;3.50;70.00;101206.72;4992707;28;20077;-83
2021/04/08 02:53:47;;;;;;;14.95;5.90;;;2.70;90.80;;;3.48;70.08;101209.53;4993864;28;20042;-83
2021/04/08 02:56:23;;;;;;;17.42;6.30;;;2.70;90.60;;;3.47;70.75;101215.91;4994362;28;20047;-83
2021/04/08 02:58:52;;;;;;;18.02;6.57;;;2.70;90.90;;;3.49;70.90;101211.25;4993431;28;20042;-83
2021/04/08 03:01:21;;;;;;;20.00;6.78;;;2.70;90.80;;;3.50;70.71;101217.47;4991856;28;20061;-83
2021/04/08 03:03:52;;;;;;;18.10;6.65;;;2.70;90.80;;;3.49;70.77;101213.94;4993146;28;20085;-83
2021/04/08 03:06:20;;;;;;;16.63;6.22;;;2.70;90.90;;;3.46;70.53;101208.78;4992944;28;20053;-83
2021/04/08 03:08:51;;;;;;;18.15;6.30;;;2.70;90.90;;;3.49;70.50;101213.94;4993431;28;20121;-83
2021/04/08 03:11:24;;;;;;;13.00;5.78;;;2.70;90.80;;;3.51;70.73;101211.97;4993831;28;20065;-83
2021/04/08 03:13:53;;;;;;;15.93;6.18;;;2.80;90.80;;;3.50;71.08;101221.03;4993201;28;20046;-84
2021/04/08 03:16:25;;;;;;;21.48;6.40;;;2.70;90.80;;;3.49;71.04;101211.25;4993398;28;20053;-83
2021/04/08 03:18:57;;;;;;;11.75;5.45;;;2.70;91.00;;;3.50;70.80;101207.59;4993464;28;20042;-83
2021/04/08 03:21:26;;;;;;;15.48;5.80;;;2.70;91.10;;;3.51;70.85;101209.28;4992094;28;20081;-83
2021/04/08 03:23:54;;;;;;;16.23;5.60;;;2.80;91.10;;;3.53;70.58;101218.09;4992960;28;20410;-83
2021/04/08 03:26:23;;;;;;;14.75;5.22;;;2.70;90.80;;;3.54;70.73;101218.94;4993980;28;20205;-83
2021/04/08 03:28:51;;;;;;;14.57;5.72;;;2.70;91.10;;;3.53;71.28;101220.78;4992122;28;20093;-83
2021/04/08 03:31:19;;;;;;;15.52;5.80;;;2.80;90.90;;;3.53;71.05;101220.78;4992972;28;20074;-84
2021/04/08 03:33:48;;;;;;;15.18;5.43;;;2.70;90.90;;;3.52;70.90;101216.41;4992832;28;20046;-83
2021/04/08 03:36:17;;;;;;;15.23;5.07;;;2.70;91.00;;;3.56;70.45;101226.91;4993392;28;20061;-83
2021/04/08 03:38:45;;;;;;;18.25;5.82;;;2.70;91.10;;;3.55;70.94;101230.59;4993576;28;20427;-83
2021/04/08 03:41:13;;;;;;;14.70;5.82;;;2.70;91.00;;;3.51;70.25;101230.81;4993326;28;20133;-83
2021/04/08 03:43:43;;;;;;;15.25;5.70;;;2.70;90.90;;;3.51;70.83;101222.75;4992990;28;20078;-83
2021/04/08 03:46:11;;;;;;;14.00;6.05;;;2.70;91.00;;;3.55;70.67;101230.59;4992967;28;20050;-83
2021/04/08 03:48:40;;;;;;;13.13;5.55;;;2.80;91.20;;;3.53;70.79;101234.25;4993640;28;20042;-83
2021/04/08 03:51:09;;;;;;;16.45;5.60;;;2.80;91.00;;;3.55;71.22;101241.34;4992296;28;20042;-83
2021/04/08 03:53:38;;;;;;;20.35;6.28;;;2.80;91.00;;;3.51;70.83;101236.19;4993356;28;20043;-83
2021/04/08 03:56:08;;;;;;;12.07;5.63;;;2.80;91.10;;;3.51;70.68;101238.88;4993239;28;20038;-83
2021/04/08 03:58:36;;;;;;;20.90;5.95;;;2.80;91.10;;;3.54;70.89;101243.16;4991901;28;20062;-83
2021/04/08 04:01:05;;;;;;;17.48;4.50;;;2.80;91.30;;;3.55;71.00;101235.97;4992625;28;20387;-83
2021/04/08 04:03:32;;;;;;;14.10;5.43;;;2.80;91.20;;;3.59;71.37;101242.81;4992546;28;20058;-83
2021/04/08 04:05:59;;;;;;;14.60;4.72;;;2.80;91.30;;;3.58;71.29;101241.09;4993200;28;20073;-83
2021/04/08 04:08:26;;;;;;;14.52;5.88;;;2.80;91.20;;;3.57;70.78;101245.63;4993106;28;20046;-83
2021/04/08 04:10:53;;;;;;;16.83;5.30;;;2.90;91.20;;;3.57;70.79;101250.16;4993452;28;20045;-83
2021/04/08 04:13:21;;;;;;;13.85;5.03;;;2.80;91.20;;;3.57;71.38;101245.63;4991204;28;20076;-83
2021/04/08 04:15:51;;;;;;;11.27;4.88;;;2.80;91.30;;;3.59;71.71;101248.19;4992921;28;20046;-83
2021/04/08 04:18:19;;;;;;;16.10;5.20;;;2.90;91.50;;;3.59;70.85;101242.81;4995165;28;20042;-83
2021/04/08 04:20:46;;;;;;;17.00;5.15;;;2.90;91.40;;;3.59;71.09;101249.03;4996444;28;20043;-83
2021/04/08 04:23:14;;;;;;;14.35;5.00;;;3.10;91.40;;;3.57;71.69;101248.31;4996090;28;20495;-84
2021/04/08 04:25:40;;;;;;;15.80;5.72;;;2.90;91.20;;;3.59;71.18;101237.44;4996077;28;20113;-83
2021/04/08 04:28:07;;;;;;;19.80;5.82;;;2.90;91.20;;;3.64;71.51;101243.31;4995998;28;20046;-83
2021/04/08 04:30:34;;;;;;;20.02;5.60;;;3.00;91.20;;;3.65;70.88;101253.09;4996070;28;20042;-83
2021/04/08 04:33:02;;;;;;;17.05;6.00;;;3.00;91.20;;;3.66;71.69;101249.44;4995889;28;20052;-83
2021/04/08 04:35:30;;;;;;;12.38;4.75;;;3.00;91.40;;;3.70;71.41;101253.59;4996401;28;20052;-83
2021/04/08 04:37:56;;;;;;;16.85;5.15;;;3.00;91.50;;;3.69;71.36;101249.16;4996155;28;20038;-83
2021/04/08 04:40:23;;;;;;;13.55;4.70;;;3.00;91.50;;;3.74;71.64;101256.91;4995608;28;20049;-83
2021/04/08 04:42:50;;;;;;;12.52;4.65;;;3.10;91.50;;;3.75;71.28;101250.50;4994548;28;20054;-83
2021/04/08 04:45:17;;;;;;;13.52;4.90;;;3.00;91.50;;;3.79;71.83;101252.84;4996087;28;20146;-83
2021/04/08 04:47:44;;;;;;;14.48;4.63;;;3.10;91.70;;;3.75;71.40;101251.41;4996610;28;20051;-83
2021/04/08 04:50:13;;;;;;;15.30;4.47;;;3.10;91.70;;;3.75;71.96;101254.09;4995883;28;20096;-83
2021/04/08 04:52:42;;;;;;;18.40;4.70;;;3.10;91.50;;;3.74;71.64;101252.34;4995822;28;20047;-83
2021/04/08 04:55:10;;;;;;;10.90;4.10;;;3.20;91.40;;;3.77;72.12;101257.50;4996095;28;20054;-83
2021/04/08 04:57:38;;;;;;;10.30;4.10;;;3.10;91.40;;;3.78;71.72;101259.22;4995716;28;20046;-83
2021/04/08 05:00:06;;;;;;;14.23;4.80;;;3.20;91.50;;;3.80;71.98;101261.78;4995987;28;20046;-83
2021/04/08 05:02:33;;;;;;;14.88;4.28;;;3.20;91.50;;;3.80;71.64;101262.63;4995816;28;20100;-83
2021/04/08 05:05:00;;;;;;;14.75;4.88;;;3.20;91.40;;;3.78;71.50;101264.59;4995612;28;20042;-83
2021/04/08 05:07:27;;;;;;;18.25;5.53;;;3.20;91.40;;;3.81;72.13;101267.06;4996040;28;20070;-83
2021/04/08 05:09:55;;;;;;;16.63;5.40;;;3.20;91.30;;;3.81;72.23;101268.88;4995526;28;20145;-83
2021/04/08 05:12:22;;;;;;;16.80;5.60;;;3.30;91.50;;;3.79;72.00;101265.44;4995813;28;20708;-83
2021/04/08 05:14:50;;;;;;;16.95;5.60;;;3.20;91.20;;;3.84;71.99;101265.94;4995309;28;20479;-83
2021/04/08 05:17:17;;;;;;;13.40;5.05;;;3.20;91.50;;;3.83;72.17;101265.09;4995051;28;20401;-86
2021/04/08 05:19:43;;;;;;;15.15;5.10;;;3.30;91.80;;;3.84;72.17;101268.63;4995478;28;20407;-82
2021/04/08 05:22:10;;;;;;;15.52;5.47;;;3.30;91.60;;;3.83;71.86;101272.31;4997022;28;20043;-90
2021/04/08 05:24:37;;;;;;;17.65;4.85;;;3.30;91.60;;;3.85;71.91;101273.06;4999321;28;20466;-88
2021/04/08 05:27:06;;;;;;;20.25;5.57;;;3.40;91.50;;;3.83;72.00;101273.16;4988873;28;20050;-89
2021/04/08 05:29:33;;;;;;;10.88;5.00;;;3.30;91.60;;;3.85;72.23;101276.59;4994180;28;20046;-90
2021/04/08 05:32:00;;;;;;;13.73;4.65;;;3.30;91.60;;;3.86;72.18;101277.44;4996467;28;20078;-89
2021/04/08 05:34:27;;;;;;;13.90;5.07;;;3.30;91.60;;;3.87;72.37;101277.31;4994211;28;20034;-90
2021/04/08 05:36:54;;;;;;;15.35;5.97;;;3.30;91.70;;;3.86;72.43;101277.44;4993017;28;20061;-90
2021/04/08 05:39:21;;;;;;;18.33;5.85;;;3.40;91.90;;;3.91;72.18;101275.25;4993087;28;20054;-90
2021/04/08 05:41:48;;;;;;;11.23;5.50;;;3.40;91.60;;;3.92;72.07;101280.53;4994310;28;20038;-90
2021/04/08 05:44:15;;;;;;;14.60;4.38;;;3.40;91.70;;;3.95;72.43;101281.25;4992868;28;20423;-90
2021/04/08 05:46:42;;;;;;;12.93;4.35;;;3.40;91.50;;;3.97;71.99;101279.28;4994426;28;20047;-90
2021/04/08 05:49:09;;;;;;;13.68;5.18;;;3.40;91.70;;;3.95;71.98;101284.78;4994086;28;20527;-90
2021/04/08 05:51:36;;;;;;;13.40;4.38;;;3.40;91.70;;;3.99;72.28;101286.25;4993192;28;20411;-90
2021/04/08 05:54:03;;;;;;;11.48;4.70;;;3.40;91.70;;;4.00;72.75;101295.19;4993950;28;20491;-89
2021/04/08 05:56:30;;;;;;;13.85;4.35;;;3.50;92.00;;;4.00;72.63;101301.44;4993254;28;20685;-89
2021/04/08 05:58:57;;;;;;;10.65;4.65;;;3.50;92.00;;;4.02;72.52;101299.50;4994087;28;20064;-90
2021/04/08 06:01:25;;;;;;;13.02;4.65;;;3.50;91.90;;;4.05;72.19;101298.38;4994160;28;20038;-90
2021/04/08 06:03:54;;;;;;;13.20;4.20;;;3.50;92.10;;;4.05;72.02;101298.38;4993969;28;20038;-89
2021/04/08 06:06:21;;;;;;;14.23;4.90;;;3.50;91.80;;;4.03;72.70;101295.78;4996342;28;20042;-89
2021/04/08 06:08:48;;;;;;;13.88;4.68;;;3.60;91.60;;;4.05;72.48;101301.91;4996951;28;20053;-90
2021/04/08 06:11:16;;;;;;;12.65;5.15;;;3.60;91.50;;;4.11;72.13;101308.66;4999999;28;20411;-90
2021/04/08 06:13:43;;;;;;;10.70;4.90;;;3.60;91.50;;;4.09;72.25;101305.22;5003151;28;20046;-89
2021/04/08 06:16:10;;;;;;;11.27;4.50;;;3.70;91.60;;;4.10;72.39;101301.56;4999878;28;20043;-90
2021/04/08 06:18:38;;;;;;;13.82;5.20;;;3.70;91.30;;;4.13;72.30;101303.16;4993089;28;20050;-84
2021/04/08 06:21:05;;;;;;;12.73;4.53;;;3.70;91.10;;;4.17;71.79;101308.19;4995400;28;20039;-84
2021/04/08 06:23:32;;;;;;;18.15;5.75;;;3.70;91.10;;;4.18;71.91;101312.56;4995769;28;20046;-83
2021/04/08 06:25:59;;;;;;;29.75;10.75;;;3.70;91.10;;;4.19;71.68;101311.59;4995509;28;20046;-86
2021/04/08 06:28:26;;;;;;;41.38;12.23;;;3.80;91.10;;;4.19;72.29;101317.00;4993532;28;20046;-87
2021/04/08 06:30:53;;;;;;;29.48;11.30;;;3.80;91.00;;;4.22;72.24;101313.19;4993947;28;20042;-86
2021/04/08 06:33:19;;;;;;;27.27;10.07;;;3.90;91.10;;;4.23;71.48;101318.47;4991987;28;20419;-87
2021/04/08 06:35:47;;;;;;;23.63;10.90;;;3.90;90.40;;;4.25;71.60;101329.97;4992814;28;20466;-87
2021/04/08 06:38:14;;;;;;;22.35;10.00;;;3.90;90.30;;;4.24;71.69;101322.00;4992844;28;20046;-87
2021/04/08 06:40:41;;;;;;;22.92;8.43;;;4.00;90.30;;;4.24;72.25;101325.53;4991321;28;20106;-86
2021/04/08 06:43:12;;;;;;;17.83;8.38;;;4.00;90.10;;;4.27;72.21;101328.00;4992379;28;20073;-87
2021/04/08 06:45:46;;;;;;;16.27;7.95;;;4.00;90.10;;;4.30;71.78;101324.19;4991383;28;20046;-86
2021/04/08 06:48:23;;;;;;;27.67;8.80;;;4.10;90.10;;;4.32;71.82;101324.91;4992588;28;20487;-86
2021/04/08 06:50:54;;;;;;;19.98;8.40;;;4.20;89.90;;;4.34;71.74;101325.69;4992642;28;20038;-86
2021/04/08 06:53:21;;;;;;;20.65;8.85;;;4.20;90.00;;;4.37;72.02;101329.97;4992861;28;20499;-84
2021/04/08 06:55:48;;;;;;;20.70;8.85;;;4.40;90.10;;;4.40;72.16;101325.19;4993489;28;20053;-83
2021/04/08 06:58:16;;;;;;;19.58;8.82;;;4.30;89.80;;;4.41;72.15;101331.41;4997657;28;20050;-83
2021/04/08 07:00:44;;;;;;;19.83;8.40;;;4.40;89.50;;;4.44;72.26;101326.63;4997993;28;20116;-83
2021/04/08 07:03:11;;;;;;;18.55;9.13;;;4.60;89.40;;;4.46;71.95;101330.06;4998126;28;20082;-85
2021/04/08 07:05:38;;;;;;;23.13;9.43;;;4.50;89.30;;;4.43;72.46;101329.44;4994425;28;20407;-84
2021/04/08 07:08:06;;;;;;;17.77;8.13;;;4.60;88.80;;;4.51;72.30;101337.75;4996408;28;20043;-84
2021/04/08 07:10:33;;;;;;;24.60;9.00;;;4.60;88.40;;;4.56;72.15;101330.16;4991981;28;20050;-85
2021/04/08 07:13:00;;;;;;;22.45;8.70;;;4.70;88.60;;;4.60;72.06;101331.63;4976399;28;20074;-84
2021/04/08 07:15:27;;;;;;;22.67;8.27;;;4.70;88.50;;;4.63;71.90;101328.69;4976851;28;20050;-84
2021/04/08 07:17:54;;;;;;;18.98;9.10;;;4.80;88.10;;;4.65;71.86;101332.09;4976070;28;20043;-84
2021/04/08 07:20:21;;;;;;;17.48;8.45;;;4.90;87.80;;;4.66;71.63;101335.66;4976897;28;20515;-84
2021/04/08 07:22:48;;;;;;;16.77;8.52;;;4.90;87.30;;;4.70;71.99;101337.09;4975139;28;20095;-82
2021/04/08 07:25:18;;;;;;;15.70;8.30;;;5.00;87.10;;;4.70;71.53;101339.81;4977076;28;20498;-82
2021/04/08 07:27:45;;;;;;;18.38;8.30;;;5.10;86.70;;;4.71;71.37;101344.22;4986640;28;20054;-82
2021/04/08 07:30:17;;;;;;;16.13;8.25;;;5.20;86.00;;;4.77;71.51;101332.94;4990561;28;20066;-82
2021/04/08 07:32:44;;;;;;;18.75;8.65;;;5.20;85.90;;;4.83;71.35;101337.81;4994293;28;20055;-82
2021/04/08 07:35:16;;;;;;;19.30;8.65;;;5.30;86.10;;;4.83;71.54;101342.34;4993038;28;20043;-84
2021/04/08 07:37:54;;;;;;;17.75;8.88;;;5.50;85.40;;;4.81;71.49;101334.38;4990099;28;20066;-84
2021/04/08 07:40:25;;;;;;;22.23;9.00;;;5.60;84.70;;;4.92;71.53;101347.00;4994195;28;20042;-85
2021/04/08 07:42:52;;;;;;;;;;;5.70;84.30;;;4.99;70.85;101344.63;4993994;28;20054;-84
2021/04/08 07:45:28;;;;;;;18.85;8.82;;;5.80;83.90;;;5.01;70.94;101346.22;4993346;28;19926;-84
2021/04/08 07:48:00;;;;;;;17.90;8.68;;;5.90;83.90;;;5.01;69.14;101346.22;4993351;28;20057;-84
2021/04/08 07:50:28;;;;;;;16.98;8.43;;;5.90;82.80;;;5.07;70.18;101351.09;4993486;28;20038;-85
2021/04/08 07:52:57;;;;;;;17.45;8.10;;;6.00;82.90;;;5.13;69.58;101343.50;4978291;28;20074;-84
2021/04/08 07:55:36;;;;;;;12.60;7.35;;;6.10;82.60;;;5.18;69.93;101352.03;4984569;28;20059;-84
2021/04/08 07:58:06;;;;;;;18.17;8.48;;;6.20;82.00;;;5.25;70.22;101345.16;4997189;28;20042;-84
2021/04/08 08:00:35;;;;;;;25.92;8.65;;;6.30;82.20;;;5.29;70.17;101344.78;4995654;28;20039;-83
2021/04/08 08:03:04;;;;;;;16.17;7.28;;;6.40;81.80;;;5.37;69.43;101351.34;4996257;28;20065;-84
2021/04/08 08:05:33;;;;;;;14.02;7.35;;;6.50;81.30;;;5.43;69.24;101348.16;4996113;28;20056;-84
2021/04/08 08:08:18;;;;;;;21.10;8.18;;;6.60;80.50;;;5.45;68.29;101347.00;4997307;28;20580;-82
2021/04/08 08:10:58;;;;;;;16.25;7.80;;;6.70;79.20;;;5.48;67.80;101354.88;4997728;28;20426;-81
2021/04/08 08:17:39;;;;;;;17.73;7.32;;;6.70;79.50;;;5.62;68.14;101355.53;4916468;29;20143;-83
2021/04/08 08:20:08;;;;;;;18.02;7.30;;;6.70;79.20;;;5.59;66.67;101350.38;4917258;29;20052;-83
2021/04/08 08:22:37;;;;;;;14.95;6.45;;;6.80;78.10;;;5.60;65.75;101355.66;4890176;29;20044;-83
2021/04/08 08:25:06;;;;;;;18.20;6.93;;;6.70;76.70;;;5.64;65.96;101358.94;4903514;29;20607;-83
2021/04/08 08:27:46;;;;;;;15.30;6.88;;;6.80;76.60;;;5.68;66.38;101363.09;4918602;29;20060;-84
2021/04/08 08:30:18;;;;;;;13.03;6.23;;;6.80;76.90;;;5.60;63.84;101362.91;4918016;29;20084;-84
2021/04/08 08:33:17;;;;;;;18.35;6.68;;;6.90;75.30;;;5.69;65.99;101356.69;4914651;29;20303;-83
2021/04/08 08:36:05;;;;;;;17.92;7.65;;;6.90;76.50;;;5.76;66.93;101360.59;4914134;29;20076;-83
2021/04/08 08:38:37;;;;;;;17.77;6.68;;;7.00;77.60;;;5.81;66.31;101360.19;4910914;29;20056;-83
2021/04/08 08:41:07;;;;;;;17.85;6.93;;;7.00;76.80;;;5.83;64.97;101356.38;4914558;29;20060;-83
2021/04/08 08:43:35;;;;;;;17.95;7.07;;;7.10;75.90;;;5.88;65.90;101364.94;4914167;29;20059;-83
2021/04/08 08:46:02;;;;;;;16.13;6.45;;;7.10;76.50;;;5.88;65.09;101359.53;4914754;29;20075;-83
2021/04/08 08:48:29;;;;;;;18.73;8.10;;;7.20;74.90;;;5.95;65.75;101356.28;4986662;28;20050;-82
2021/04/08 08:50:56;;;;;;;14.85;5.85;;;7.20;76.30;;;5.97;64.44;101354.34;4994000;28;20048;-83
2021/04/08 08:53:23;;;;;;;11.45;5.40;;;7.30;74.40;;;5.98;64.27;101356.06;4993128;28;20788;-83
2021/04/08 08:55:53;;;;;;;22.38;6.13;;;7.30;74.60;;;6.09;65.49;101357.81;4993847;28;20081;-83
2021/04/08 08:58:20;;;;;;;15.30;6.20;;;7.40;74.70;;;6.18;63.93;101357.84;5012847;28;20173;-83
2021/04/08 09:00:48;;;;;;;16.40;6.72;;;7.60;73.30;;;6.21;63.87;101357.59;5013011;28;20413;-83
2021/04/08 09:03:15;;;;;;;14.23;5.90;;;7.60;72.00;;;6.24;63.48;101354.63;5012433;28;20038;-83
2021/04/08 09:05:42;;;;;;;18.55;5.53;;;7.70;72.80;;;6.25;61.51;101363.59;4999633;28;20450;-83
2021/04/08 09:08:14;;;;;;;13.38;5.45;;;7.70;72.90;;;6.26;60.54;101360.75;4993315;28;20050;-83
2021/04/08 09:10:43;;;;;;;14.07;5.97;;;7.70;71.60;;;6.22;60.54;101359.28;4980393;28;20038;-83
2021/04/08 09:13:10;;;;;;;12.65;5.30;;;7.70;70.00;;;6.30;61.55;101365.88;4993553;28;20047;-83
2021/04/08 09:15:38;;;;;;;16.48;4.97;;;7.70;71.90;;;6.34;60.70;101370.00;4994054;28;20046;-82
2021/04/08 09:18:08;;;;;;;14.07;5.25;;;7.70;70.80;;;6.39;61.08;101367.75;4995249;28;20133;-81
2021/04/08 09:20:37;;;;;;;12.98;4.57;;;7.80;71.00;;;6.43;60.89;101370.03;4996707;28;20038;-81
2021/04/08 09:23:08;;;;;;;18.92;4.88;;;7.80;70.60;;;6.46;60.98;101358.13;5015375;28;20057;-81
2021/04/08 09:25:38;;;;;;;12.93;4.53;;;7.80;70.10;;;6.52;62.61;101354.84;5015914;28;20140;-81
2021/04/08 09:28:08;;;;;;;12.68;4.47;;;7.90;71.50;;;6.51;59.23;101360.41;5016566;28;20046;-80
2021/04/08 09:30:54;;;;;;;13.90;4.32;;;8.00;69.10;;;6.55;60.01;101361.84;5015704;28;20470;-81
2021/04/08 09:34:02;;;;;;;12.60;3.45;;;8.00;70.10;;;6.58;59.47;101359.72;5015159;28;20053;-80
2021/04/08 09:36:42;;;;;;;13.05;4.13;;;8.00;69.00;;;6.53;56.21;101353.88;4976171;28;20128;-79
2021/04/08 09:39:28;;;;;;;11.15;3.75;;;8.00;66.20;;;6.53;56.06;101351.19;4976162;28;20054;-81
2021/04/08 09:42:01;;;;;;;10.02;3.95;;;8.00;64.60;;;6.62;58.69;101355.72;4976497;28;20049;-80
2021/04/08 09:44:29;;;;;;;9.45;4.30;;;8.10;66.80;;;6.65;57.89;101344.66;4985736;28;20070;-81
2021/04/08 09:46:59;;;;;;;9.05;3.72;;;8.10;66.90;;;6.67;57.16;101343.66;4995623;28;20042;-81
2021/04/08 09:49:48;;;;;;;9.05;3.90;;;8.10;65.60;;;6.65;56.85;101343.81;4996045;28;20046;-81
2021/04/08 09:52:17;;;;;;;12.02;4.35;;;8.10;66.10;;;6.72;58.39;101339.56;4995824;28;20046;-81
2021/04/08 09:54:52;;;;;;;10.95;3.97;;;8.10;67.00;;;6.69;55.26;101338.97;4995693;28;20053;-81
2021/04/08 09:57:40;;;;;;;6.47;3.25;;;8.00;65.80;;;6.64;52.07;101336.66;4995657;28;20054;-81
2021/04/08 10:00:12;;;;;;;8.05;3.05;;;8.00;63.40;;;6.54;52.82;101336.66;4996002;28;20392;-81
2021/04/08 10:02:56;;;;;;;9.32;3.63;;;8.00;63.30;;;6.63;55.15;101337.69;4996100;28;20114;-80
2021/04/08 10:05:29;;;;;;;11.02;4.20;;;7.90;66.30;;;6.64;55.48;101342.97;4995519;28;20053;-81
2021/04/08 10:07:59;;;;;;;6.95;3.55;;;7.80;65.10;;;6.68;57.69;101329.97;5004302;28;20427;-81
2021/04/08 10:10:42;;;;;;;10.63;3.38;;;7.80;67.60;;;6.70;53.93;101330.72;5015173;28;20045;-81
2021/04/08 10:13:22;;;;;;;7.55;3.00;;;7.80;65.30;;;6.62;52.42;101334.09;5014721;28;20042;-81
2021/04/08 10:15:52;;;;;;;9.35;3.08;;;7.80;64.40;;;6.63;54.77;101334.97;5012624;28;20374;-81
2021/04/08 10:18:21;;;;;;;7.72;3.30;;;7.80;65.50;;;6.58;50.33;101334.53;5015772;28;20091;-82
2021/04/08 10:20:52;;;;;;;5.93;3.03;;;7.80;58.90;;;6.62;49.92;101331.38;5012232;28;20517;-81
2021/04/08 10:23:34;;;;;;;11.48;2.85;;;7.80;58.60;;;6.65;51.84;101317.59;4995058;28;20073;-80
2021/04/08 10:26:05;;;;;;;8.27;3.17;;;7.90;61.60;;;6.69;52.43;101322.75;4995949;28;20054;-80
2021/04/08 10:28:41;;;;;;;8.57;3.03;;;8.00;63.60;;;6.72;52.89;101311.63;4995281;28;20047;-81
2021/04/08 10:31:18;;;;;;;10.63;3.30;;;7.90;61.30;;;6.73;51.94;101316.06;4993880;28;20419;-81
2021/04/08 10:33:45;;;;;;;7.75;3.30;;;8.00;61.30;;;6.78;52.99;101327.31;4995083;28;20058;-81
2021/04/08 10:36:27;;;;;;;8.20;3.80;;;8.00;62.80;;;6.82;53.86;101328.75;4995299;28;20038;-80